Time;durP1;ratioP1;P1;durP2;ratioP2;P2;SDS_P1;SDS_P2;PMS_P1;PMS_P2;Temp;Humidity;BMP_temperature;BMP_pressure;BME280_temperature;BME280_humidity;BME280_pressure;Samples;Min_cycle;Max_cycle;Signal;HPM_P1;HPM_P2
2022/10/01 00:00:59;;;;;;;;;5.00;5.00;;;;;14.46;72.06;100312.44;5075602;28;45678;-69
2022/10/01 00:03:27;;;;;;;;;3.67;3.67;;;;;14.46;72.05;100303.47;5075406;28;46357;-70
2022/10/01 00:06:09;;;;;;;;;5.00;5.00;;;;;14.45;72.12;100304.34;5076037;28;45878;-70
2022/10/01 00:08:36;;;;;;;;;4.33;4.33;;;;;14.44;71.94;100295.41;5073862;28;45512;-70
2022/10/01 00:11:13;;;;;;;;;6.67;5.67;;;;;14.43;71.92;100293.59;5074701;28;45484;-69
2022/10/01 00:13:41;;;;;;;;;5.00;2.00;;;;;14.45;72.15;100291.84;5070539;28;45592;-69
2022/10/01 00:16:10;;;;;;;;;2.33;2.33;;;;;14.37;72.29;100272.09;5073880;28;45564;-68
2022/10/01 00:18:37;;;;;;;;;3.00;3.00;;;;;14.49;72.44;100271.22;5077636;28;45453;-71
2022/10/01 00:21:11;;;;;;;;;3.00;3.00;;;;;14.45;72.28;100255.97;5076948;27;45436;-70
2022/10/01 00:23:37;;;;;;;;;3.00;2.00;;;;;14.53;72.10;100271.22;5073114;28;45491;-70
2022/10/01 00:26:16;;;;;;;;;2.00;2.00;;;;;14.58;71.91;100268.53;5072241;28;45511;-69
2022/10/01 00:28:44;;;;;;;;;3.33;3.33;;;;;14.59;71.98;100264.09;5075809;28;45595;-70
2022/10/01 00:31:09;;;;;;;;;7.00;7.00;;;;;14.59;71.97;100238.13;5073101;28;45685;-70
2022/10/01 00:33:35;;;;;;;;;6.33;5.00;;;;;14.59;72.11;100243.50;5073477;28;46334;-71
2022/10/01 00:36:02;;;;;;;;;5.33;5.33;;;;;14.64;72.22;100249.78;5073632;27;45399;-68
2022/10/01 00:38:28;;;;;;;;;12.00;7.00;;;;;14.63;72.25;100274.84;5077081;27;45360;-71
2022/10/01 00:40:54;;;;;;;;;7.00;6.33;;;;;14.47;72.53;100235.38;5078007;28;45429;-69
2022/10/01 00:43:22;;;;;;;;;13.50;9.00;;;;;14.64;72.95;100270.41;5072826;28;45841;-69
2022/10/01 00:45:48;;;;;;;;;8.67;7.67;;;;;14.59;73.18;100256.94;5073089;28;45395;-70
2022/10/01 00:48:14;;;;;;;;;11.67;7.00;;;;;14.61;73.14;100236.31;5083466;27;45381;-69
2022/10/01 00:50:39;;;;;;;;;6.67;6.33;;;;;14.55;73.29;100234.50;5098518;27;45541;-69
2022/10/01 00:53:11;;;;;;;;;8.00;6.00;;;;;14.51;73.27;100235.38;5103199;27;45517;-69
2022/10/01 00:55:45;;;;;;;;;4.00;4.00;;;;;14.64;73.35;100251.59;5098100;27;45487;-68
2022/10/01 00:58:13;;;;;;;;;4.67;4.00;;;;;14.62;73.61;100239.91;5098744;27;45439;-69
2022/10/01 01:00:41;;;;;;;;;3.67;3.67;;;;;14.63;73.89;100249.78;5094513;27;45636;-69
2022/10/01 01:03:08;;;;;;;;;4.33;4.00;;;;;14.64;74.10;100255.16;5090786;27;45585;-68
2022/10/01 01:05:34;;;;;;;;;5.00;5.00;;;;;14.59;74.46;100248.88;5092847;27;45491;-70
2022/10/01 01:08:01;;;;;;;;;2.33;2.33;;;;;14.44;75.20;100212.09;5094062;27;45387;-71
2022/10/01 01:10:43;;;;;;;;;1.33;1.33;;;;;14.46;75.33;100238.97;5094406;27;45423;-70
2022/10/01 01:13:27;;;;;;;;;1.67;1.33;;;;;14.52;75.75;100237.19;5093401;27;46183;-70
2022/10/01 01:16:14;;;;;;;;;1.00;1.00;;;;;14.49;75.83;100239.88;5103340;27;45466;-70
2022/10/01 01:18:47;;;;;;;;;1.67;1.67;;;;;14.04;76.11;100155.56;5095689;27;45582;-70
2022/10/01 01:21:19;;;;;;;;;2.33;2.00;;;;;14.51;75.62;100242.56;5095753;27;45452;-70
2022/10/01 01:24:05;;;;;;;;;3.67;2.00;;;;;14.48;76.22;100243.44;5092291;27;52957;-70
2022/10/01 01:26:53;;;;;;;;;2.00;1.00;;;;;14.51;76.13;100239.88;5093158;27;45393;-70
2022/10/01 01:29:41;;;;;;;;;2.67;1.00;;;;;14.49;76.13;100238.97;5089528;27;45463;-68
2022/10/01 01:32:13;;;;;;;;;2.33;2.00;;;;;14.46;76.70;100229.09;5109998;27;45485;-70
2022/10/01 01:34:42;;;;;;;;;2.33;1.67;;;;;14.46;76.66;100215.66;5105855;27;45733;-69
2022/10/01 01:37:13;;;;;;;;;5.00;1.33;;;;;14.15;76.88;100152.91;5092913;27;45590;-69
2022/10/01 01:39:43;;;;;;;;;3.67;1.00;;;;;14.51;76.88;100208.50;5093856;27;45612;-70
2022/10/01 01:42:14;;;;;;;;;1.00;1.00;;;;;14.50;76.53;100197.75;5092500;27;45294;-68
2022/10/01 01:44:44;;;;;;;;;2.00;0.00;;;;;14.53;76.89;100219.25;5093100;27;46308;-70
2022/10/01 01:47:11;;;;;;;;;1.00;1.00;;;;;14.06;76.80;100123.34;5097848;27;45596;-70
2022/10/01 01:49:38;;;;;;;;;2.00;2.00;;;;;14.36;76.91;100171.75;5086664;28;45396;-70
2022/10/01 01:52:14;;;;;;;;;1.67;1.67;;;;;14.56;76.54;100212.09;5072188;28;45324;-68
2022/10/01 01:54:43;;;;;;;;;1.00;1.00;;;;;14.57;76.79;100210.31;5072693;28;47178;-70
2022/10/01 01:57:12;;;;;;;;;1.00;1.00;;;;;14.61;76.72;100196.00;5073299;28;45548;-70
2022/10/01 01:59:38;;;;;;;;;0.00;0.00;;;;;14.65;76.77;100205.88;5072815;28;45576;-68
2022/10/01 02:02:05;;;;;;;;;1.00;0.00;;;;;14.14;76.78;100110.84;5073484;28;45326;-69
2022/10/01 02:04:39;;;;;;;;;2.00;0.00;;;;;14.67;76.73;100200.50;5074253;28;45542;-69
2022/10/01 02:07:37;;;;;;;;;0.00;0.00;;;;;14.71;76.73;100197.78;5070330;28;45342;-70
2022/10/01 02:10:40;;;;;;;;;1.00;1.00;;;;;14.72;76.79;100199.59;5060745;28;45369;-70
2022/10/01 02:13:26;;;;;;;;;0.67;0.00;;;;;14.59;76.96;100161.94;5013758;28;46284;-70
2022/10/01 02:16:10;;;;;;;;;0.00;0.00;;;;;14.75;76.91;100196.03;5072235;28;46408;-70
2022/10/01 02:18:47;;;;;;;;;0.00;0.00;;;;;14.75;76.68;100196.03;5070655;28;45393;-71
2022/10/01 02:21:30;;;;;;;;;1.00;0.00;;;;;14.76;76.75;100189.72;5045939;27;45525;-71
2022/10/01 02:24:18;;;;;;;;;0.00;0.00;;;;;14.79;76.24;100184.38;5076005;28;45532;-70
2022/10/01 02:26:48;;;;;;;;;1.00;1.00;;;;;14.80;76.33;100188.84;5075756;28;46217;-70
2022/10/01 02:29:18;;;;;;;;;1.00;1.00;;;;;14.81;76.49;100189.75;5076157;28;45294;-71
2022/10/01 02:31:46;;;;;;;;;0.00;0.00;;;;;14.65;76.43;100148.50;5073306;28;45527;-70
2022/10/01 02:34:16;;;;;;;;;0.00;0.00;;;;;14.82;76.42;100187.06;5070638;28;45484;-71
2022/10/01 02:36:45;;;;;;;;;0.00;0.00;;;;;14.85;76.53;100178.06;5072540;27;46217;-69
2022/10/01 02:39:15;;;;;;;;;1.00;1.00;;;;;14.71;76.44;100143.13;5074260;28;45399;-72
2022/10/01 02:41:44;;;;;;;;;0.00;0.00;;;;;14.85;76.61;100178.06;5075067;28;45460;-69
2022/10/01 02:44:15;;;;;;;;;0.00;0.00;;;;;14.82;76.74;100157.47;5053458;28;45516;-70
2022/10/01 02:46:51;;;;;;;;;0.00;0.00;;;;;14.91;76.67;100168.25;5076543;28;46191;-70
2022/10/01 02:49:17;;;;;;;;;0.67;0.00;;;;;14.78;76.83;100152.97;5076370;27;45722;-69
2022/10/01 02:51:56;;;;;;;;;0.00;0.00;;;;;14.96;76.77;100162.81;5077907;28;45614;-70
2022/10/01 02:54:33;;;;;;;;;1.00;1.00;;;;;14.34;76.42;100039.19;5074697;28;45637;-69
2022/10/01 02:59:42;;;;;;;;;0.00;0.00;;;;;15.00;76.41;100142.22;5076268;28;46067;-70
2022/10/01 03:02:08;;;;;;;;;0.00;0.00;;;;;14.97;76.76;100126.09;5056560;28;50492;-70
2022/10/01 03:04:34;;;;;;;;;0.00;0.00;;;;;15.04;76.79;100134.13;5076464;28;45487;-70
2022/10/01 03:07:02;;;;;;;;;0.00;0.00;;;;;15.05;76.99;100130.53;5075805;28;46347;-69
2022/10/01 03:09:31;;;;;;;;;1.00;0.00;;;;;15.08;76.79;100127.84;5073035;28;45612;-70
2022/10/01 03:11:58;;;;;;;;;0.00;0.00;;;;;15.08;76.72;100127.84;5075181;28;45683;-69
2022/10/01 03:14:23;;;;;;;;;0.00;0.00;;;;;15.12;76.54;100120.66;5074816;28;45366;-69
2022/10/01 03:16:50;;;;;;;;;0.33;0.00;;;;;15.14;76.50;100132.31;5056608;28;48216;-69
2022/10/01 03:19:15;;;;;;;;;0.67;0.00;;;;;15.16;76.57;100126.94;5074264;28;45468;-69
2022/10/01 03:21:40;;;;;;;;;0.00;0.00;;;;;15.11;76.69;100130.53;5075080;28;45350;-70
2022/10/01 03:24:06;;;;;;;;;0.00;0.00;;;;;14.73;76.90;100049.91;5076162;28;45367;-70
2022/10/01 03:26:31;;;;;;;;;0.00;0.00;;;;;15.18;76.87;100123.34;5074682;28;47570;-70
2022/10/01 03:28:57;;;;;;;;;0.00;0.00;;;;;15.19;76.97;100129.63;5081626;28;45271;-69
2022/10/01 03:31:22;;;;;;;;;0.00;0.00;;;;;15.19;77.04;100130.50;5075280;28;45659;-70
2022/10/01 03:33:47;;;;;;;;;0.00;0.00;;;;;15.22;77.14;100129.63;5073778;28;55333;-69
2022/10/01 03:36:13;;;;;;;;;0.00;0.00;;;;;15.21;76.94;100123.34;5074562;28;46182;-69
2022/10/01 03:38:38;;;;;;;;;0.00;0.00;;;;;15.25;77.16;100124.22;5074310;28;45752;-71
2022/10/01 03:41:03;;;;;;;;;0.67;0.00;;;;;15.25;77.22;100130.50;5072668;28;45523;-69
2022/10/01 03:43:29;;;;;;;;;1.00;0.00;;;;;15.24;77.03;100126.00;5071969;28;45397;-68
2022/10/01 03:45:55;;;;;;;;;0.00;0.00;;;;;15.28;77.45;100129.59;5074268;28;45482;-69
2022/10/01 03:48:21;;;;;;;;;0.00;0.00;;;;;15.11;77.37;100087.50;5084895;27;45398;-69
2022/10/01 03:50:56;;;;;;;;;0.00;0.00;;;;;15.22;77.63;100111.66;5095800;27;45618;-70
2022/10/01 03:53:22;;;;;;;;;0.00;0.00;;;;;15.25;78.22;100125.13;5094860;27;45451;-70
2022/10/01 03:55:48;;;;;;;;;0.00;0.00;;;;;15.32;78.22;100136.75;5092559;27;46365;-68
2022/10/01 03:58:14;;;;;;;;;0.00;0.00;;;;;15.35;78.67;100146.63;5097023;27;45483;-68
2022/10/01 04:00:39;;;;;;;;;0.00;0.00;;;;;15.34;78.58;100136.75;5095341;27;45730;-70
2022/10/01 04:03:05;;;;;;;;;0.00;0.00;;;;;15.29;79.00;100132.28;5098107;27;45816;-68
2022/10/01 04:05:30;;;;;;;;;0.67;0.00;;;;;15.36;79.16;100159.16;5094219;27;46230;-70
2022/10/01 04:07:56;;;;;;;;;0.00;0.00;;;;;15.38;79.08;100149.31;5094830;27;45531;-69
2022/10/01 04:10:22;;;;;;;;;0.00;0.00;;;;;15.40;78.90;100164.53;5095347;27;45477;-70
2022/10/01 04:12:47;;;;;;;;;0.00;0.00;;;;;15.42;79.11;100159.16;5094131;27;45453;-71
2022/10/01 04:15:12;;;;;;;;;0.00;0.00;;;;;15.44;79.33;100171.72;5094263;27;47711;-70
2022/10/01 04:17:37;;;;;;;;;0.00;0.00;;;;;15.47;79.27;100177.06;5093275;27;45574;-68
2022/10/01 04:20:03;;;;;;;;;0.00;0.00;;;;;15.52;78.99;100181.56;5093952;27;54574;-69
2022/10/01 04:22:29;;;;;;;;;0.67;0.00;;;;;15.54;79.35;100182.44;5094111;27;45704;-73
2022/10/01 04:24:54;;;;;;;;;0.00;0.00;;;;;15.37;79.81;100166.34;5094958;27;45346;-71
2022/10/01 04:27:19;;;;;;;;;0.00;0.00;;;;;15.56;80.13;100200.41;5092440;27;66625;-68
2022/10/01 04:29:44;;;;;;;;;0.00;0.00;;;;;15.59;80.14;100204.88;5094731;27;45492;-69
2022/10/01 04:32:10;;;;;;;;;0.00;0.00;;;;;15.60;80.31;100204.88;5094271;27;58189;-69
2022/10/01 04:34:54;;;;;;;;;0.00;0.00;;;;;15.62;80.44;100202.16;5094405;27;53341;-70
2022/10/01 04:37:19;;;;;;;;;0.00;0.00;;;;;15.56;80.28;100197.72;5093300;27;46218;-69
2022/10/01 04:39:45;;;;;;;;;0.00;0.00;;;;;15.62;80.14;100211.16;5094561;27;46966;-69
2022/10/01 04:42:12;;;;;;;;;0.00;0.00;;;;;15.65;80.88;100200.34;5092942;27;45529;-69
2022/10/01 04:44:37;;;;;;;;;0.00;0.00;;;;;15.70;80.93;100205.72;5092076;27;46097;-69
2022/10/01 04:47:03;;;;;;;;;0.00;0.00;;;;;15.72;81.00;100216.50;5092226;27;47021;-69
2022/10/01 04:49:28;;;;;;;;;0.00;0.00;;;;;15.74;80.82;100218.31;5093544;27;45507;-68
2022/10/01 04:51:54;;;;;;;;;0.00;0.00;;;;;15.74;80.37;100223.69;5094376;27;45502;-68
2022/10/01 04:54:19;;;;;;;;;0.67;0.00;;;;;15.79;80.10;100230.00;5095412;27;59891;-69
2022/10/01 04:56:44;;;;;;;;;0.00;0.00;;;;;15.86;80.32;100230.88;5093796;27;46544;-70
2022/10/01 04:59:10;;;;;;;;;0.00;0.00;;;;;15.82;79.88;100227.28;5093264;27;61397;-68
2022/10/01 05:01:35;;;;;;;;;0.00;0.00;;;;;15.92;79.89;100235.31;5094700;27;45658;-70
2022/10/01 05:04:00;;;;;;;;;0.00;0.00;;;;;15.93;80.13;100232.63;5103930;27;62688;-69
2022/10/01 05:06:25;;;;;;;;;0.00;0.00;;;;;15.91;79.74;100217.38;5091884;27;62814;-69
2022/10/01 05:08:51;;;;;;;;;0.00;0.00;;;;;16.00;79.82;100247.88;5094746;27;46492;-67
2022/10/01 05:11:17;;;;;;;;;0.00;0.00;;;;;16.02;79.71;100247.88;5093929;27;45578;-70
2022/10/01 05:13:43;;;;;;;;;0.00;0.00;;;;;16.05;79.58;100241.56;5096394;27;46370;-70
2022/10/01 05:16:09;;;;;;;;;0.00;0.00;;;;;16.06;79.10;100241.56;5098391;27;45664;-69
2022/10/01 05:18:34;;;;;;;;;0.00;0.00;;;;;15.96;79.08;100227.22;5094698;27;45415;-68
2022/10/01 05:21:04;;;;;;;;;0.00;0.00;;;;;15.96;79.19;100237.13;5094446;27;45374;-69
2022/10/01 05:23:30;;;;;;;;;0.00;0.00;;;;;16.03;79.01;100252.34;5093734;27;46036;-69
2022/10/01 05:25:55;;;;;;;;;1.00;1.00;;;;;16.12;79.11;100256.78;5096563;27;45425;-70
2022/10/01 05:28:20;;;;;;;;;0.00;0.00;;;;;15.94;78.75;100237.13;5094391;27;58040;-70
2022/10/01 05:30:46;;;;;;;;;0.00;0.00;;;;;16.09;78.87;100260.41;5092898;27;47254;-69
2022/10/01 05:33:11;;;;;;;;;0.00;0.00;;;;;16.12;78.38;100262.19;5094854;27;46368;-68
2022/10/01 05:35:36;;;;;;;;;1.00;0.00;;;;;16.11;78.78;100271.19;5093761;27;45601;-68
2022/10/01 05:38:02;;;;;;;;;0.00;0.00;;;;;16.11;78.72;100280.16;5089157;27;45436;-68
2022/10/01 05:40:29;;;;;;;;;0.00;0.00;;;;;16.09;79.09;100263.09;5093004;27;46192;-70
2022/10/01 05:42:57;;;;;;;;;0.00;0.00;;;;;16.05;78.62;100257.72;5092993;27;48185;-70
2022/10/01 05:45:23;;;;;;;;;0.00;0.00;;;;;16.12;78.48;100284.66;5092555;27;45483;-69
2022/10/01 05:47:58;;;;;;;;;0.00;0.00;;;;;16.13;79.00;100291.81;5092605;27;45518;-69
2022/10/01 05:50:24;;;;;;;;;0.67;0.00;;;;;16.15;78.51;100303.53;5089106;27;45599;-70
2022/10/01 05:52:53;;;;;;;;;0.00;0.00;;;;;16.15;78.55;100303.53;5092615;27;45509;-70
2022/10/01 05:55:19;;;;;;;;;0.00;0.00;;;;;16.17;78.18;100311.59;5091396;27;45491;-70
2022/10/01 05:57:52;;;;;;;;;0.67;0.67;;;;;15.81;78.26;100247.03;5093611;27;45479;-71
2022/10/01 06:00:19;;;;;;;;;0.67;0.00;;;;;16.16;77.91;100307.09;5093732;27;45363;-69
2022/10/01 06:02:49;;;;;;;;;0.00;0.00;;;;;16.15;77.65;100306.22;5093711;27;46097;-71
2022/10/01 06:05:14;;;;;;;;;0.00;0.00;;;;;16.10;77.50;100307.09;5092852;27;45248;-74
2022/10/01 06:07:39;;;;;;;;;0.00;0.00;;;;;16.25;77.81;100325.03;5093189;27;46013;-69
2022/10/01 06:10:05;;;;;;;;;0.00;0.00;;;;;16.26;77.40;100334.91;5090837;27;48727;-69
2022/10/01 06:12:33;;;;;;;;;0.00;0.00;;;;;16.27;77.28;100337.59;5095068;27;45413;-69
2022/10/01 06:14:58;;;;;;;;;1.00;0.00;;;;;16.27;77.08;100336.69;5101080;27;46214;-68
2022/10/01 06:17:23;;;;;;;;;0.67;0.00;;;;;16.25;77.46;100342.13;5091779;27;54721;-71
2022/10/01 06:19:50;;;;;;;;;0.00;0.00;;;;;16.26;77.12;100345.69;5088736;27;47182;-68
2022/10/01 06:22:15;;;;;;;;;0.00;0.00;;;;;16.32;76.70;100359.16;5089514;27;46155;-70
2022/10/01 06:24:41;;;;;;;;;0.00;0.00;;;;;16.12;76.37;100321.47;5089945;27;45536;-68
2022/10/01 06:27:06;;;;;;;;;1.33;0.33;;;;;15.95;76.54;100295.47;5090840;27;52916;-69
2022/10/01 06:29:31;;;;;;;;;1.67;0.00;;;;;16.14;75.92;100330.47;5089677;27;45627;-69
2022/10/01 06:31:57;;;;;;;;;0.00;0.00;;;;;16.37;75.48;100363.63;5090855;27;46097;-70
2022/10/01 06:34:22;;;;;;;;;2.33;0.00;;;;;16.32;75.17;100361.88;5090177;27;45477;-69
2022/10/01 06:36:47;;;;;;;;;0.00;0.00;;;;;16.02;75.62;100301.78;5090372;27;45451;-69
2022/10/01 06:39:13;;;;;;;;;1.67;1.67;;;;;16.30;74.94;100348.38;5093082;27;45409;-68
2022/10/01 06:41:40;;;;;;;;;0.00;0.00;;;;;16.34;74.86;100357.34;5090475;27;47216;-69
2022/10/01 06:44:06;;;;;;;;;1.00;0.00;;;;;16.36;74.44;100364.50;5088415;27;45405;-70
2022/10/01 06:46:31;;;;;;;;;2.00;1.00;;;;;16.40;74.41;100362.72;5092916;27;45508;-71
2022/10/01 06:48:57;;;;;;;;;1.00;1.00;;;;;16.43;74.04;100367.19;5090288;27;46140;-69
2022/10/01 06:52:47;;;;;;;;;1.00;1.00;;;;;16.46;73.83;100369.88;5095953;27;61527;-69
2022/10/01 06:54:07;;;;;;;;;0.67;0.67;;;;;16.30;73.74;100337.59;5096337;27;45393;-68
2022/10/01 06:56:34;;;;;;;;;7.67;5.00;;;;;16.30;73.60;100343.00;5091063;27;45439;-70
2022/10/01 06:58:59;;;;;;;;;3.67;1.00;;;;;16.37;73.25;100351.97;5101595;27;45348;-73
2022/10/01 07:01:24;;;;;;;;;2.33;2.33;;;;;16.51;73.03;100377.03;5114338;27;48260;-70
2022/10/01 07:03:51;;;;;;;;;4.00;1.00;;;;;16.29;73.36;100337.59;5102844;27;66232;-70
2022/10/01 07:06:16;;;;;;;;;2.33;0.67;;;;;16.19;72.92;100324.16;5093690;27;45574;-69
2022/10/01 07:08:42;;;;;;;;;0.00;0.00;;;;;16.45;72.83;100373.47;5087918;27;49980;-70
2022/10/01 07:11:07;;;;;;;;;0.33;0.33;;;;;16.35;72.69;100349.25;5095947;27;45594;-71
2022/10/01 07:13:33;;;;;;;;;0.67;0.67;;;;;16.58;71.80;100403.09;5091947;27;45508;-67
2022/10/01 07:15:58;;;;;;;;;0.33;0.00;;;;;16.48;71.88;100392.34;5090945;27;46350;-72
2022/10/01 07:18:23;;;;;;;;;1.33;0.67;;;;;16.65;71.62;100422.84;5096067;27;52563;-69
2022/10/01 07:20:49;;;;;;;;;0.33;0.33;;;;;16.68;71.67;100433.63;5101095;27;45565;-70
2022/10/01 07:23:15;;;;;;;;;1.33;0.00;;;;;16.42;71.15;100379.78;5098440;27;45549;-70
2022/10/01 07:25:42;;;;;;;;;0.00;0.00;;;;;16.55;71.22;100397.72;5096574;27;45298;-69
2022/10/01 07:28:14;;;;;;;;;2.00;2.00;;;;;16.64;70.80;100407.56;5100567;27;46134;-69
2022/10/01 07:31:10;;;;;;;;;2.33;0.00;;;;;16.82;71.23;100440.78;5103870;27;45723;-72
2022/10/01 07:33:35;;;;;;;;;0.00;0.00;;;;;16.85;71.42;100446.19;5104355;27;45427;-70
2022/10/01 07:36:03;;;;;;;;;0.33;0.00;;;;;16.79;71.20;100438.97;5098335;27;46085;-70
2022/10/01 07:38:29;;;;;;;;;0.33;0.33;;;;;16.71;71.76;100428.25;5111248;27;44943;-70
2022/10/01 07:40:54;;;;;;;;;1.00;0.67;;;;;16.82;71.52;100433.56;5110352;27;45516;-72
2022/10/01 07:43:20;;;;;;;;;3.67;3.33;;;;;16.95;71.84;100447.94;5106828;27;45413;-71
2022/10/01 07:45:53;;;;;;;;;2.00;1.33;;;;;16.99;71.58;100451.53;5113990;27;44986;-71
2022/10/01 07:48:19;;;;;;;;;0.00;0.00;;;;;16.99;71.71;100455.09;5086161;27;45381;-70
2022/10/01 07:50:45;;;;;;;;;1.67;1.33;;;;;17.01;71.62;100453.31;5075818;28;45481;-69
2022/10/01 07:53:11;;;;;;;;;0.67;0.67;;;;;17.03;70.69;100469.50;5073520;27;45502;-70
2022/10/01 07:55:36;;;;;;;;;1.33;0.33;;;;;16.88;71.10;100443.50;5051980;28;45550;-72
2022/10/01 07:58:02;;;;;;;;;1.33;1.33;;;;;16.89;70.83;100451.53;5054079;28;45530;-70
2022/10/01 08:00:30;;;;;;;;;2.00;0.67;;;;;17.08;70.59;100471.28;5065355;28;46310;-70
2022/10/01 08:02:56;;;;;;;;;2.33;2.33;;;;;17.04;69.50;100463.19;5068780;27;45414;-71
2022/10/01 08:05:28;;;;;;;;;0.67;0.67;;;;;17.16;69.64;100482.03;5068617;28;45433;-70
2022/10/01 08:08:00;;;;;;;;;5.67;0.67;;;;;17.18;69.06;100487.44;5068739;28;45504;-70
2022/10/01 08:10:25;;;;;;;;;3.33;0.67;;;;;17.23;68.48;100491.00;5063607;28;46158;-69
2022/10/01 08:12:50;;;;;;;;;1.00;1.00;;;;;17.20;68.20;100481.09;5062944;28;45395;-70
2022/10/01 08:15:17;;;;;;;;;4.33;1.67;;;;;17.23;68.24;100485.59;5063624;28;45467;-71
2022/10/01 08:17:43;;;;;;;;;3.00;1.00;;;;;17.11;67.87;100459.56;5053507;28;45573;-73
2022/10/01 08:20:12;;;;;;;;;2.00;0.00;;;;;17.32;66.83;100499.03;5060136;28;46115;-71
2022/10/01 08:22:38;;;;;;;;;4.00;1.00;;;;;17.28;66.81;100478.38;5060230;28;45499;-73
2022/10/01 08:25:04;;;;;;;;;2.00;1.00;;;;;17.43;66.71;100507.09;5069931;28;45503;-74
2022/10/01 08:27:29;;;;;;;;;2.00;2.00;;;;;17.37;66.24;100497.22;5065130;28;45697;-76
2022/10/01 08:29:55;;;;;;;;;3.67;2.67;;;;;17.42;66.46;100495.41;5063739;28;45927;-74
2022/10/01 08:32:22;;;;;;;;;0.33;0.33;;;;;17.48;66.08;100516.06;5070184;28;45559;-74
2022/10/01 08:34:48;;;;;;;;;2.67;2.67;;;;;17.42;66.05;100506.22;5075379;28;45315;-72
2022/10/01 08:37:14;;;;;;;;;4.33;1.67;;;;;17.46;65.74;100515.19;5070430;28;46159;-71
2022/10/01 08:39:40;;;;;;;;;2.00;2.00;;;;;17.31;65.11;100508.06;5088432;28;45080;-72
2022/10/01 08:42:13;;;;;;;;;3.00;0.00;;;;;17.40;64.95;100526.00;5090146;28;44913;-73
2022/10/01 08:44:42;;;;;;;;;1.00;1.00;;;;;17.41;65.14;100527.81;5089666;28;44918;-72
2022/10/01 08:47:34;;;;;;;;;2.67;1.00;;;;;17.43;65.05;100536.81;5087710;27;45257;-72
2022/10/01 08:50:09;;;;;;;;;4.67;4.67;;;;;17.43;64.76;100526.88;5081953;28;45754;-73
2022/10/01 08:52:47;;;;;;;;;3.33;1.67;;;;;17.54;65.12;100544.84;5083397;28;45417;-72
2022/10/01 08:55:19;;;;;;;;;2.67;0.67;;;;;17.53;64.14;100546.66;5074546;28;45390;-72
2022/10/01 08:57:54;;;;;;;;;3.33;1.00;;;;;17.55;64.28;100557.44;5075146;28;45460;-71
2022/10/01 09:00:20;;;;;;;;;6.00;1.00;;;;;17.52;64.52;100543.94;5080235;28;45707;-72
2022/10/01 09:02:46;;;;;;;;;2.00;1.33;;;;;16.40;64.69;100352.84;5084305;28;45365;-72
2022/10/01 09:05:23;;;;;;;;;3.00;3.00;;;;;17.65;64.51;100570.00;5054186;28;45671;-72
2022/10/01 09:08:01;;;;;;;;;3.00;2.00;;;;;17.71;64.64;100574.47;5081378;28;45475;-73
2022/10/01 09:10:46;;;;;;;;;6.00;1.67;;;;;17.72;64.56;100574.47;5090087;28;45935;-73
2022/10/01 09:14:01;;;;;;;;;2.00;2.00;;;;;17.38;64.55;100509.81;5089146;27;44970;-72
2022/10/01 09:16:55;;;;;;;;;4.67;3.00;;;;;17.82;64.94;100575.31;4983940;28;45281;-72
2022/10/01 09:19:53;;;;;;;;;3.00;3.00;;;;;17.88;64.75;100583.38;5079905;28;45069;-71
2022/10/01 09:22:47;;;;;;;;;3.00;3.00;;;;;17.91;64.64;100587.91;5086112;28;46347;-71
2022/10/01 09:25:22;;;;;;;;;3.00;1.00;;;;;17.92;64.78;100596.00;5074258;28;45253;-72
2022/10/01 09:27:50;;;;;;;;;6.33;2.33;;;;;17.91;64.85;100594.19;5087729;28;45073;-70
2022/10/01 09:30:20;;;;;;;;;4.00;1.67;;;;;17.88;64.95;100596.03;5087697;28;45321;-70
2022/10/01 09:32:53;;;;;;;;;1.33;1.33;;;;;17.88;64.73;100594.19;5091205;28;45233;-71
2022/10/01 09:35:44;;;;;;;;;1.00;1.00;;;;;17.91;64.60;100601.41;5089838;28;45001;-71
2022/10/01 09:38:19;;;;;;;;;3.67;2.00;;;;;17.95;65.07;100608.56;5066387;28;45129;-72
2022/10/01 09:41:11;;;;;;;;;4.00;4.00;;;;;17.99;64.42;100610.38;5091267;28;45012;-71
2022/10/01 09:43:39;;;;;;;;;3.00;1.67;;;;;17.94;63.76;100609.50;5082064;28;45771;-71
2022/10/01 09:46:12;;;;;;;;;5.67;2.67;;;;;17.92;63.43;100605.88;5088684;28;45111;-71
2022/10/01 09:48:59;;;;;;;;;3.00;1.67;;;;;17.98;63.83;100627.47;5072866;27;45236;-71
2022/10/01 09:51:31;;;;;;;;;2.00;2.00;;;;;18.03;63.77;100621.16;5075234;28;45474;-71
2022/10/01 09:54:14;;;;;;;;;1.33;1.33;;;;;18.02;63.47;100613.94;5080390;28;45504;-70
2022/10/01 09:56:55;;;;;;;;;7.00;2.67;;;;;18.01;63.25;100612.13;5083617;28;45246;-72
2022/10/01 09:59:42;;;;;;;;;4.00;3.33;;;;;18.15;63.30;100632.78;5079832;28;45424;-70
2022/10/01 10:02:29;;;;;;;;;8.00;3.33;;;;;18.07;63.36;100629.25;5083277;28;45916;-71
2022/10/01 10:05:05;;;;;;;;;3.00;1.67;;;;;18.17;63.14;100648.09;5081190;28;45394;-70
2022/10/01 10:07:33;;;;;;;;;1.00;1.00;;;;;18.11;62.97;100633.72;5070911;28;45210;-71
2022/10/01 10:10:19;;;;;;;;;2.33;0.67;;;;;18.17;62.99;100648.09;5090183;28;44976;-72
2022/10/01 10:12:45;;;;;;;;;4.33;2.33;;;;;18.11;62.84;100633.72;5090186;28;45068;-72
2022/10/01 10:15:20;;;;;;;;;5.67;1.00;;;;;17.79;62.35;100561.81;5084587;28;45794;-71
2022/10/01 10:17:51;;;;;;;;;2.00;0.67;;;;;18.13;62.08;100630.13;5078739;28;45248;-70
2022/10/01 10:20:27;;;;;;;;;2.67;1.33;;;;;18.27;62.54;100634.53;5086240;28;45611;-71
2022/10/01 10:22:53;;;;;;;;;0.00;0.00;;;;;18.33;62.23;100639.88;5079538;28;45259;-70
2022/10/01 10:25:22;;;;;;;;;1.67;1.67;;;;;18.47;61.92;100650.59;5074583;28;46098;-70
2022/10/01 10:27:55;;;;;;;;;1.33;1.00;;;;;18.40;61.46;100620.00;5089051;28;45465;-71
2022/10/01 10:30:23;;;;;;;;;3.67;1.67;;;;;18.66;60.78;100659.44;5042952;28;45428;-71
2022/10/01 10:32:50;;;;;;;;;2.00;2.00;;;;;18.78;60.17;100651.25;5070783;27;45446;-72
2022/10/01 10:35:22;;;;;;;;;6.33;3.67;;;;;18.90;59.60;100658.38;5069440;27;47689;-70
2022/10/01 10:37:53;;;;;;;;;2.00;2.00;;;;;18.98;59.25;100655.63;5072460;27;46188;-72
2022/10/01 10:40:25;;;;;;;;;1.33;1.33;;;;;18.94;58.75;100639.41;5072506;28;45436;-70
2022/10/01 10:42:54;;;;;;;;;3.00;0.67;;;;;18.94;58.98;100631.28;5079304;27;45446;-71
2022/10/01 10:45:28;;;;;;;;;3.33;2.00;;;;;19.24;58.28;100666.19;5073305;28;46353;-70
2022/10/01 10:47:54;;;;;;;;;5.00;2.67;;;;;19.28;57.30;100671.53;5071460;27;45836;-70
2022/10/01 10:50:31;;;;;;;;;6.67;2.00;;;;;19.28;57.00;100666.09;5072790;27;45347;-71
2022/10/01 10:52:56;;;;;;;;;1.00;1.00;;;;;19.27;56.61;100658.00;5072295;28;45526;-72
2022/10/01 10:55:29;;;;;;;;;1.33;1.33;;;;;19.27;56.23;100669.75;5072682;28;46977;-71
2022/10/01 10:58:08;;;;;;;;;6.00;0.00;;;;;19.19;56.14;100666.22;5072633;28;45922;-71
2022/10/01 11:00:42;;;;;;;;;1.00;1.00;;;;;19.29;56.17;100684.16;5071646;28;46137;-71
2022/10/01 11:03:14;;;;;;;;;5.00;3.00;;;;;19.22;56.40;100668.91;5076019;27;45758;-70
2022/10/01 11:05:41;;;;;;;;;3.00;1.33;;;;;19.39;56.03;100690.38;5083515;28;46195;-71
2022/10/01 11:08:19;;;;;;;;;4.00;2.67;;;;;19.41;55.78;100687.66;5080339;28;45639;-74
2022/10/01 11:10:48;;;;;;;;;6.67;3.33;;;;;19.50;55.63;100688.47;5055141;28;45521;-71
2022/10/01 11:13:32;;;;;;;;;4.67;3.00;;;;;19.58;55.49;100688.34;5075342;28;45420;-71
2022/10/01 11:16:10;;;;;;;;;3.67;2.00;;;;;19.64;55.15;100693.72;5069390;27;46953;-71
2022/10/01 11:19:10;;;;;;;;;2.67;1.00;;;;;19.63;54.62;100697.34;5081300;27;45433;-69
2022/10/01 11:21:53;;;;;;;;;3.00;3.00;;;;;19.69;54.78;100694.53;5070949;27;45447;-72
2022/10/01 11:24:44;;;;;;;;;5.33;2.67;;;;;19.68;53.83;100690.06;5071613;28;45486;-71
2022/10/01 11:27:41;;;;;;;;;2.67;2.00;;;;;19.67;53.52;100695.50;5053686;28;47816;-72
2022/10/01 11:30:13;;;;;;;;;2.67;0.67;;;;;19.68;53.01;100695.47;5074030;28;45417;-70
2022/10/01 11:33:21;;;;;;;;;3.67;2.00;;;;;19.50;52.85;100677.63;5071753;27;45279;-71
2022/10/01 11:36:13;;;;;;;;;9.00;3.33;;;;;19.68;52.45;100697.28;5070425;27;45611;-70
2022/10/01 11:38:42;;;;;;;;;1.67;1.67;;;;;19.77;52.21;100707.16;5071404;28;45397;-71
2022/10/01 11:41:19;;;;;;;;;6.00;2.00;;;;;19.80;52.44;100707.09;5076677;28;45712;-71
2022/10/01 11:43:51;;;;;;;;;2.00;2.00;;;;;19.82;52.16;100699.88;5069005;28;45090;-71